createdAt,value
2018-09-16T00:02:06.445Z,99.90
2018-09-16T00:04:36.335Z,99.90
2018-09-16T00:07:14.985Z,99.90
2018-09-16T00:09:58.559Z,99.90
2018-09-16T00:12:30.101Z,99.90
2018-09-16T00:15:36.995Z,99.90
2018-09-16T00:18:21.541Z,99.90
2018-09-16T00:20:52.306Z,99.90
2018-09-16T00:23:23.612Z,99.90
2018-09-16T00:25:54.106Z,99.90
2018-09-16T00:28:52.639Z,99.90
2018-09-16T00:31:55.367Z,99.90
2018-09-16T00:34:25.587Z,99.90
2018-09-16T00:36:55.700Z,99.90
2018-09-16T00:39:26.937Z,99.90
2018-09-16T00:42:08.932Z,99.90
2018-09-16T00:45:12.892Z,99.90
2018-09-16T00:48:05.279Z,99.90
2018-09-16T00:50:37.600Z,99.90
2018-09-16T00:53:10.206Z,99.90
2018-09-16T00:55:41.909Z,99.90
2018-09-16T00:58:11.685Z,99.90
2018-09-16T01:03:49.850Z,99.90
2018-09-16T01:06:48.185Z,99.90
2018-09-16T01:09:26.972Z,99.90
2018-09-16T01:11:57.293Z,99.90
2018-09-16T01:14:37.918Z,99.90
2018-09-16T01:17:08.200Z,99.90
2018-09-16T01:20:03.318Z,99.90
2018-09-16T01:22:35.760Z,99.90
2018-09-16T01:25:06.579Z,99.90
2018-09-16T01:27:36.835Z,99.90
2018-09-16T01:30:07.799Z,99.90
2018-09-16T01:32:37.747Z,99.90
2018-09-16T01:35:08.542Z,99.90
2018-09-16T01:37:48.206Z,99.90
2018-09-16T01:40:17.757Z,99.90
2018-09-16T01:42:46.970Z,99.90
2018-09-16T01:45:27.595Z,99.90
2018-09-16T01:47:59.019Z,99.90
2018-09-16T01:50:31.011Z,99.90
2018-09-16T01:53:02.074Z,99.90
2018-09-16T01:55:35.644Z,99.90
2018-09-16T01:58:06.550Z,99.90
2018-09-16T02:00:35.820Z,99.90
2018-09-16T02:03:05.813Z,99.90
2018-09-16T02:05:40.188Z,99.90
2018-09-16T02:08:10.212Z,99.90
2018-09-16T02:10:40.727Z,99.90
2018-09-16T02:13:10.893Z,99.90
2018-09-16T02:15:41.993Z,99.90
2018-09-16T02:18:11.521Z,99.90
2018-09-16T02:20:40.634Z,99.90
2018-09-16T02:23:11.362Z,99.90
2018-09-16T02:25:43.752Z,99.90
2018-09-16T02:28:21.567Z,99.90
2018-09-16T02:30:52.754Z,99.90
2018-09-16T02:33:29.201Z,99.90
2018-09-16T02:35:58.506Z,99.90
2018-09-16T02:38:27.667Z,99.90
2018-09-16T02:41:01.235Z,99.90
2018-09-16T02:43:30.723Z,99.90
2018-09-16T02:46:02.031Z,99.90
2018-09-16T02:48:31.702Z,99.90
2018-09-16T02:51:05.471Z,99.90
2018-09-16T02:53:36.354Z,99.90
2018-09-16T02:56:06.094Z,99.90
2018-09-16T02:58:35.622Z,99.90
2018-09-16T03:01:12.808Z,99.90
2018-09-16T03:03:42.438Z,99.90
2018-09-16T03:06:12.222Z,99.90
2018-09-16T03:08:42.234Z,99.90
2018-09-16T03:11:11.849Z,99.90
2018-09-16T03:13:45.124Z,99.90
2018-09-16T03:16:14.276Z,99.90
2018-09-16T03:18:43.740Z,99.90
2018-09-16T03:21:21.761Z,99.90
2018-09-16T03:23:53.423Z,99.90
2018-09-16T03:26:23.743Z,99.90
2018-09-16T03:28:53.070Z,99.90
2018-09-16T03:31:22.358Z,99.90
2018-09-16T03:33:52.308Z,99.90
2018-09-16T03:36:21.695Z,99.90
2018-09-16T03:38:52.002Z,99.90
2018-09-16T03:41:22.816Z,99.90
2018-09-16T03:43:52.114Z,99.90
2018-09-16T03:46:23.447Z,99.90
2018-09-16T03:48:52.599Z,99.90
2018-09-16T03:51:24.093Z,99.90
2018-09-16T03:53:54.757Z,99.90
2018-09-16T03:56:24.612Z,99.90
2018-09-16T03:58:54.288Z,99.90
2018-09-16T04:01:23.457Z,99.90
2018-09-16T04:03:52.962Z,99.90
2018-09-16T04:06:22.249Z,99.90
2018-09-16T04:08:51.337Z,99.90
2018-09-16T04:11:21.732Z,99.90
2018-09-16T04:13:51.073Z,99.90
2018-09-16T04:16:20.709Z,99.90
2018-09-16T04:18:50.260Z,99.90
2018-09-16T04:21:19.686Z,99.90
2018-09-16T04:23:49.407Z,99.90
2018-09-16T04:26:19.204Z,99.90
2018-09-16T04:28:48.773Z,99.90
2018-09-16T04:31:18.026Z,99.90
2018-09-16T04:33:47.519Z,99.90
2018-09-16T04:36:18.337Z,99.90
2018-09-16T04:38:49.484Z,99.90
2018-09-16T04:41:18.920Z,99.90
2018-09-16T04:43:48.366Z,99.90
2018-09-16T04:46:18.214Z,99.90
2018-09-16T04:48:47.588Z,99.90
2018-09-16T04:51:16.877Z,99.90
2018-09-16T04:53:47.761Z,99.90
2018-09-16T04:56:17.252Z,99.90
2018-09-16T04:58:47.913Z,99.90
2018-09-16T05:01:19.852Z,99.90
2018-09-16T05:03:49.218Z,99.90
2018-09-16T05:06:18.479Z,99.90
2018-09-16T05:08:48.391Z,99.90
2018-09-16T05:11:19.675Z,99.90
2018-09-16T05:13:49.535Z,99.90
2018-09-16T05:16:19.047Z,99.90
2018-09-16T05:18:48.403Z,99.90
2018-09-16T05:21:18.642Z,99.90
2018-09-16T05:23:50.332Z,99.90
2018-09-16T05:26:19.988Z,99.90
2018-09-16T05:28:49.440Z,99.90
2018-09-16T05:31:19.302Z,99.90
2018-09-16T05:33:49.147Z,99.90
2018-09-16T05:36:19.609Z,99.90
2018-09-16T05:38:50.282Z,99.90
2018-09-16T05:41:23.481Z,99.90
2018-09-16T05:43:54.014Z,99.90
2018-09-16T05:46:26.326Z,99.90
2018-09-16T05:48:55.936Z,99.90
2018-09-16T05:51:28.081Z,99.90
2018-09-16T05:54:02.949Z,99.90
2018-09-16T05:56:32.537Z,99.90
2018-09-16T05:59:03.339Z,99.90
2018-09-16T06:01:34.097Z,99.90
2018-09-16T06:04:03.503Z,99.90
2018-09-16T06:06:33.791Z,99.90
2018-09-16T06:09:03.275Z,99.90
2018-09-16T06:11:32.877Z,99.90
2018-09-16T06:14:03.213Z,99.90
2018-09-16T06:16:40.253Z,99.90
2018-09-16T06:19:20.999Z,99.90
2018-09-16T06:21:55.027Z,99.90
2018-09-16T06:24:29.348Z,99.90
2018-09-16T06:27:02.515Z,99.90
2018-09-16T06:29:39.621Z,99.90
2018-09-16T06:32:16.185Z,99.90
2018-09-16T06:34:52.229Z,99.90
2018-09-16T06:37:25.630Z,99.90
2018-09-16T06:39:55.172Z,99.90
2018-09-16T06:42:24.581Z,99.90
2018-09-16T06:44:53.798Z,99.90
2018-09-16T06:47:23.375Z,99.90
2018-09-16T06:49:53.456Z,99.90
2018-09-16T06:52:25.936Z,99.90
2018-09-16T06:54:56.106Z,99.90
2018-09-16T06:57:27.162Z,99.90
2018-09-16T06:59:57.319Z,99.90
2018-09-16T07:02:26.848Z,99.90
2018-09-16T07:04:58.953Z,99.90
2018-09-16T07:07:33.825Z,99.90
2018-09-16T07:10:04.503Z,99.90
2018-09-16T07:15:34.495Z,99.90
2018-09-16T07:18:04.860Z,99.90
2018-09-16T07:20:35.009Z,99.90
2018-09-16T07:23:05.055Z,99.90
2018-09-16T07:25:36.126Z,99.90
2018-09-16T07:28:05.852Z,99.90
2018-09-16T07:30:36.180Z,99.90
2018-09-16T07:33:06.037Z,99.90
2018-09-16T07:35:37.155Z,99.90
2018-09-16T07:38:06.766Z,99.90
2018-09-16T07:40:36.932Z,99.90
2018-09-16T07:43:07.269Z,99.90
2018-09-16T07:45:37.683Z,99.90
2018-09-16T07:48:08.502Z,99.90
2018-09-16T07:50:39.484Z,99.90
2018-09-16T07:53:11.955Z,99.90
2018-09-16T07:55:42.559Z,99.90
2018-09-16T07:58:11.930Z,99.90
2018-09-16T08:00:44.250Z,99.90
2018-09-16T08:03:14.347Z,99.90
2018-09-16T08:05:46.866Z,99.90
2018-09-16T08:08:16.844Z,99.90
2018-09-16T08:10:50.295Z,99.90
2018-09-16T08:13:29.509Z,99.90
2018-09-16T08:16:05.552Z,99.90
2018-09-16T08:18:37.545Z,99.80
2018-09-16T08:21:10.575Z,99.60
2018-09-16T08:23:47.192Z,99.40
2018-09-16T08:26:18.273Z,98.90
2018-09-16T08:28:49.680Z,98.80
2018-09-16T08:31:21.900Z,98.80
2018-09-16T08:33:53.419Z,98.20
2018-09-16T08:36:27.440Z,97.30
2018-09-16T08:38:57.281Z,96.40
2018-09-16T08:41:27.213Z,94.40
2018-09-16T08:43:59.301Z,91.80
2018-09-16T08:46:34.068Z,88.50
2018-09-16T08:49:08.277Z,82.50
2018-09-16T08:51:38.181Z,77.90
2018-09-16T08:54:10.069Z,72.50
2018-09-16T08:56:40.934Z,64.80
2018-09-16T08:59:10.685Z,63.50
2018-09-16T09:01:42.381Z,60.70
2018-09-16T09:04:15.497Z,57.70
2018-09-16T09:06:50.565Z,56.30
2018-09-16T09:09:20.376Z,53.90
2018-09-16T09:11:54.678Z,52.10
2018-09-16T09:14:26.450Z,51.90
2018-09-16T09:16:58.049Z,50.10
2018-09-16T09:19:28.674Z,48.70
2018-09-16T09:21:59.233Z,48.00
2018-09-16T09:24:28.923Z,47.80
2018-09-16T09:27:00.384Z,48.90
2018-09-16T09:29:31.497Z,48.00
2018-09-16T09:32:01.992Z,48.50
2018-09-16T09:34:34.177Z,47.90
2018-09-16T09:37:06.749Z,46.80
2018-09-16T09:39:36.980Z,46.50
2018-09-16T09:42:07.771Z,45.80
2018-09-16T09:44:38.011Z,45.30
2018-09-16T09:47:09.952Z,44.50
2018-09-16T09:49:40.725Z,43.10
2018-09-16T09:52:12.237Z,42.10
2018-09-16T09:54:44.916Z,43.70
2018-09-16T09:57:17.235Z,43.60
2018-09-16T09:59:48.592Z,42.50
2018-09-16T10:02:19.471Z,41.90
2018-09-16T10:04:49.897Z,41.50
2018-09-16T10:07:26.629Z,40.70
2018-09-16T10:09:56.316Z,39.80
2018-09-16T10:12:26.640Z,39.50
2018-09-16T10:14:57.882Z,38.60
2018-09-16T10:20:07.562Z,38.40
2018-09-16T10:22:43.761Z,36.60
2018-09-16T10:25:15.580Z,36.30
2018-09-16T10:27:47.436Z,36.80
2018-09-16T10:30:40.389Z,36.70
2018-09-16T10:33:12.182Z,35.30
2018-09-16T10:35:42.483Z,34.80
2018-09-16T10:38:14.996Z,34.10
2018-09-16T10:40:47.643Z,34.40
2018-09-16T10:43:20.536Z,33.90
2018-09-16T10:46:05.742Z,34.60
2018-09-16T10:48:38.676Z,34.00
2018-09-16T10:51:12.936Z,33.80
2018-09-16T10:53:46.137Z,33.60
2018-09-16T10:56:17.174Z,32.30
2018-09-16T10:58:59.867Z,31.60
2018-09-16T11:01:30.246Z,30.30
2018-09-16T11:04:09.569Z,30.50
2018-09-16T11:06:42.337Z,29.70
2018-09-16T11:09:13.205Z,29.00
2018-09-16T11:11:54.429Z,30.00
2018-09-16T11:14:32.265Z,30.20
2018-09-16T11:17:13.704Z,30.00
2018-09-16T11:19:48.791Z,29.40
2018-09-16T11:22:18.610Z,29.10
2018-09-16T11:24:50.688Z,29.00
2018-09-16T11:27:22.511Z,29.80
2018-09-16T11:29:54.896Z,30.00
2018-09-16T11:32:25.439Z,30.00
2018-09-16T11:34:56.128Z,30.80
2018-09-16T11:37:26.270Z,30.10
2018-09-16T11:39:58.166Z,29.90
2018-09-16T11:42:31.798Z,30.00
2018-09-16T11:45:05.372Z,29.80
2018-09-16T11:47:37.094Z,29.20
2018-09-16T11:50:09.195Z,29.10
2018-09-16T11:52:50.376Z,29.70
2018-09-16T11:55:37.632Z,30.00
2018-09-16T11:58:16.749Z,30.90
2018-09-16T12:01:01.649Z,30.50
2018-09-16T12:03:32.788Z,30.90
2018-09-16T12:06:07.031Z,30.60
2018-09-16T12:08:40.013Z,30.50
2018-09-16T12:11:14.647Z,30.80
2018-09-16T12:13:50.903Z,31.30
2018-09-16T12:16:24.266Z,30.90
2018-09-16T12:18:56.683Z,29.80
2018-09-16T12:21:27.614Z,30.40
2018-09-16T12:23:57.372Z,31.40
2018-09-16T12:26:27.349Z,32.20
2018-09-16T12:28:59.746Z,32.10
2018-09-16T12:31:32.025Z,31.40
2018-09-16T12:34:11.759Z,31.60
2018-09-16T12:36:44.564Z,31.20
2018-09-16T12:39:17.728Z,30.80
2018-09-16T12:41:52.772Z,32.20
2018-09-16T12:44:29.496Z,32.90
2018-09-16T12:46:59.318Z,32.20
2018-09-16T20:00:18.571Z,56.80
2018-09-16T20:03:45.883Z,57.00
2018-09-16T20:06:23.624Z,57.70
2018-09-16T20:12:41.779Z,58.80
2018-09-16T20:16:24.946Z,59.00
2018-09-16T20:22:31.946Z,59.20
2018-09-16T20:25:23.701Z,59.20
2018-09-16T20:28:52.853Z,60.30
2018-09-16T20:36:29.718Z,62.20
2018-09-16T20:43:08.203Z,62.70
2018-09-16T20:46:11.251Z,62.90
2018-09-16T20:53:17.414Z,61.80
2018-09-16T20:58:53.489Z,62.60
2018-09-16T21:01:51.202Z,63.60
2018-09-16T21:05:35.086Z,63.90
2018-09-16T21:08:49.784Z,64.50
2018-09-16T21:38:33.082Z,69.70
2018-09-16T21:41:17.508Z,70.50
2018-09-16T21:44:45.504Z,71.30
2018-09-16T21:50:39.340Z,72.00
2018-09-16T21:53:30.739Z,73.10
2018-09-16T21:56:21.192Z,73.80
2018-09-16T21:58:56.238Z,74.70
2018-09-16T22:01:30.595Z,76.20
2018-09-16T22:04:26.906Z,77.30
2018-09-16T22:07:18.154Z,78.70
2018-09-16T22:10:03.832Z,79.70
2018-09-16T22:12:54.618Z,81.30
2018-09-16T22:15:39.983Z,82.40
2018-09-16T22:18:13.955Z,83.90
2018-09-16T22:20:49.855Z,85.40
2018-09-16T22:23:21.268Z,86.30
2018-09-16T22:25:52.474Z,86.60
2018-09-16T22:28:23.056Z,86.70
2018-09-16T22:30:54.122Z,87.60
2018-09-16T22:33:37.431Z,88.50
2018-09-16T22:36:09.505Z,88.90
2018-09-16T22:38:53.141Z,89.90
2018-09-16T22:41:36.460Z,90.40
2018-09-16T22:44:07.727Z,90.90
2018-09-16T22:46:41.409Z,91.00
2018-09-16T22:49:32.581Z,91.20
2018-09-16T22:52:10.254Z,91.30
2018-09-16T22:54:48.107Z,91.60
2018-09-16T22:57:22.260Z,91.60
2018-09-16T23:00:11.785Z,92.30
2018-09-16T23:05:36.208Z,92.50
2018-09-16T23:08:18.183Z,92.50
2018-09-16T23:11:08.532Z,93.00
2018-09-16T23:13:40.319Z,93.10
2018-09-16T23:16:13.760Z,93.40
2018-09-16T23:18:54.603Z,93.50
2018-09-16T23:21:26.618Z,93.90
2018-09-16T23:23:58.148Z,94.30
2018-09-16T23:30:36.787Z,94.80
2018-09-16T23:33:21.140Z,95.40
2018-09-16T23:35:55.274Z,95.70
2018-09-16T23:38:36.026Z,95.80
2018-09-16T23:41:21.671Z,95.90
2018-09-16T23:43:57.262Z,96.10
2018-09-16T23:46:26.443Z,96.40
2018-09-16T23:48:59.283Z,96.60
2018-09-16T23:51:31.256Z,96.80
2018-09-16T23:54:00.795Z,96.80
2018-09-16T23:56:30.259Z,97.00
2018-09-16T23:58:59.729Z,97.30
